Time;durP1;ratioP1;P1;durP2;ratioP2;P2;SDS_P1;SDS_P2;PMS_P1;PMS_P2;Temp;Humidity;BMP_temperature;BMP_pressure;BME280_temperature;BME280_humidity;BME280_pressure;Samples;Min_cycle;Max_cycle;Signal;HPM_P1;HPM_P2
2023/12/01 00:00:47;;;;;;;2.10;0.60;;;26.50;55.30;;;;;;4991714;28;20224;-73
2023/12/01 00:03:14;;;;;;;2.70;1.00;;;26.20;56.70;;;;;;4990935;28;20260;-71
2023/12/01 00:05:41;;;;;;;1.53;0.60;;;26.10;56.90;;;;;;4989608;28;20182;-67
2023/12/01 00:08:09;;;;;;;4.13;0.80;;;25.90;56.80;;;;;;4987677;28;20257;-72
2023/12/01 00:10:36;;;;;;;0.87;0.50;;;25.80;56.70;;;;;;4989715;28;20221;-71
2023/12/01 00:13:03;;;;;;;0.80;0.50;;;25.80;55.90;;;;;;4986079;28;20186;-70
2023/12/01 00:15:30;;;;;;;2.80;0.70;;;26.00;55.90;;;;;;4990408;28;20190;-70
2023/12/01 00:17:58;;;;;;;6.67;1.60;;;26.20;55.40;;;;;;4990001;28;20196;-68
2023/12/01 00:20:26;;;;;;;3.63;1.27;;;25.90;59.80;;;;;;4974332;28;20201;-72
2023/12/01 00:22:53;;;;;;;4.67;1.40;;;26.00;62.10;;;;;;4988667;28;20281;-73
2023/12/01 00:25:20;;;;;;;8.20;1.60;;;25.90;62.10;;;;;;4989478;28;20182;-69
2023/12/01 00:27:48;;;;;;;5.37;2.00;;;25.60;63.00;;;;;;4981227;28;20241;-72
2023/12/01 00:30:15;;;;;;;5.17;1.30;;;25.40;63.50;;;;;;4980677;28;20591;-72
2023/12/01 00:32:43;;;;;;;5.20;1.47;;;25.30;63.70;;;;;;4992225;28;20213;-72
2023/12/01 00:35:11;;;;;;;4.67;1.70;;;25.30;63.40;;;;;;4992563;28;20200;-73
2023/12/01 00:37:39;;;;;;;4.33;1.80;;;25.40;63.00;;;;;;4989328;28;20193;-72
2023/12/01 00:40:07;;;;;;;9.47;1.50;;;25.70;62.40;;;;;;4988070;28;20186;-73
2023/12/01 00:42:34;;;;;;;4.93;1.50;;;26.20;61.90;;;;;;4987676;28;20563;-73
2023/12/01 00:45:01;;;;;;;5.77;1.53;;;26.70;60.90;;;;;;4986548;28;20287;-77
2023/12/01 00:47:29;;;;;;;6.53;1.53;;;27.20;60.00;;;;;;4985923;28;20187;-73
2023/12/01 00:49:56;;;;;;;3.53;1.10;;;27.70;57.90;;;;;;4988858;28;20724;-74
2023/12/01 00:52:24;;;;;;;4.67;1.40;;;27.80;56.70;;;;;;4983466;28;20633;-77
2023/12/01 00:54:52;;;;;;;3.40;1.30;;;27.90;57.10;;;;;;4991046;28;20189;-74
2023/12/01 00:57:19;;;;;;;5.57;1.03;;;28.10;55.60;;;;;;4987919;28;20182;-71
2023/12/01 00:59:46;;;;;;;2.73;1.00;;;28.00;56.50;;;;;;4992515;28;20584;-73
2023/12/01 01:02:14;;;;;;;5.83;1.33;;;28.30;55.00;;;;;;4983985;28;20212;-72
2023/12/01 01:04:41;;;;;;;4.50;1.30;;;28.30;55.20;;;;;;4993787;28;20519;-76
2023/12/01 01:07:08;;;;;;;4.40;1.30;;;28.50;56.00;;;;;;4989828;28;20186;-71
2023/12/01 01:09:36;;;;;;;3.00;1.10;;;28.70;54.70;;;;;;4993866;28;20202;-75
2023/12/01 01:12:03;;;;;;;5.77;1.40;;;28.80;53.70;;;;;;4993540;28;20189;-69
2023/12/01 01:14:30;;;;;;;5.43;1.00;;;28.60;54.10;;;;;;4988666;28;20183;-71
2023/12/01 01:16:58;;;;;;;2.80;1.20;;;28.80;54.40;;;;;;4981251;28;20212;-72
2023/12/01 01:19:25;;;;;;;3.73;1.30;;;29.00;53.40;;;;;;4981409;28;20186;-72
2023/12/01 01:21:52;;;;;;;2.70;1.07;;;29.00;52.40;;;;;;4981437;28;20182;-73
2023/12/01 01:24:20;;;;;;;3.07;1.20;;;28.80;53.40;;;;;;4981198;28;20222;-71
2023/12/01 01:26:47;;;;;;;5.27;1.40;;;28.80;52.70;;;;;;4981286;28;20186;-76
2023/12/01 01:29:15;;;;;;;5.40;1.40;;;28.60;53.60;;;;;;4982332;28;20190;-75
2023/12/01 01:31:42;;;;;;;5.37;1.53;;;28.60;54.00;;;;;;4990500;28;20783;-74
2023/12/01 01:34:09;;;;;;;6.73;1.27;;;28.80;54.90;;;;;;4987778;28;20194;-75
2023/12/01 01:36:37;;;;;;;3.77;1.10;;;28.80;53.50;;;;;;4984755;28;20552;-73
2023/12/01 01:39:04;;;;;;;2.50;1.13;;;29.00;54.30;;;;;;4980605;28;20179;-75
2023/12/01 01:41:31;;;;;;;3.43;1.50;;;29.20;53.70;;;;;;4981542;28;20178;-75
2023/12/01 01:43:59;;;;;;;3.53;1.20;;;28.60;53.20;;;;;;4979053;28;20174;-72
2023/12/01 01:46:26;;;;;;;2.17;0.93;;;27.90;55.70;;;;;;4987358;28;20193;-74
2023/12/01 01:48:54;;;;;;;5.10;1.23;;;27.80;56.40;;;;;;4977740;28;20170;-75
2023/12/01 01:51:22;;;;;;;4.80;1.10;;;28.20;55.80;;;;;;4980475;28;20218;-75
2023/12/01 01:53:50;;;;;;;2.50;1.00;;;28.50;55.50;;;;;;4986492;28;20233;-74
2023/12/01 01:56:19;;;;;;;3.33;1.10;;;28.80;54.80;;;;;;4980901;28;20633;-72
2023/12/01 01:58:46;;;;;;;2.50;1.00;;;29.00;53.60;;;;;;4985086;28;20186;-71
2023/12/01 02:01:15;;;;;;;3.00;1.10;;;28.90;53.20;;;;;;4977689;28;20261;-75
2023/12/01 02:03:42;;;;;;;3.77;0.90;;;28.90;54.30;;;;;;4978491;28;20187;-74
2023/12/01 02:06:09;;;;;;;4.80;0.80;;;28.60;53.80;;;;;;4985662;28;20190;-73
2023/12/01 02:08:37;;;;;;;4.17;1.17;;;29.00;53.50;;;;;;4980919;28;20179;-75
2023/12/01 02:11:04;;;;;;;2.63;0.77;;;29.00;52.70;;;;;;4980634;28;20213;-74
2023/12/01 02:13:32;;;;;;;2.13;0.90;;;29.00;52.90;;;;;;4982676;28;20181;-73
2023/12/01 02:16:02;;;;;;;2.23;0.97;;;28.90;53.60;;;;;;4991475;28;20277;-75
2023/12/01 02:18:35;;;;;;;2.63;0.97;;;29.30;52.80;;;;;;4978129;28;20237;-78
2023/12/01 02:21:03;;;;;;;4.37;1.10;;;29.50;52.20;;;;;;4990195;28;20178;-73
2023/12/01 02:23:31;;;;;;;1.97;0.80;;;29.20;52.50;;;;;;4984420;28;20205;-74
2023/12/01 02:25:58;;;;;;;1.33;0.70;;;29.40;52.30;;;;;;4981136;28;20551;-72
2023/12/01 02:28:26;;;;;;;2.60;0.83;;;29.30;52.20;;;;;;4990261;28;20309;-73
2023/12/01 02:30:57;;;;;;;4.57;0.87;;;29.30;51.60;;;;;;4989782;28;20257;-69
2023/12/01 02:33:25;;;;;;;3.23;1.00;;;29.70;51.80;;;;;;4979427;28;20646;-71
2023/12/01 02:35:54;;;;;;;6.00;0.90;;;29.80;51.60;;;;;;4983484;28;20231;-68
2023/12/01 02:38:21;;;;;;;3.17;0.97;;;29.40;51.40;;;;;;4980076;28;20269;-70
2023/12/01 02:40:50;;;;;;;1.80;0.80;;;28.80;52.40;;;;;;4982081;28;20182;-68
2023/12/01 02:43:19;;;;;;;2.87;1.20;;;28.70;53.20;;;;;;4981075;28;20174;-69
2023/12/01 02:45:47;;;;;;;2.30;0.70;;;28.90;53.60;;;;;;4988058;28;20612;-72
2023/12/01 02:48:16;;;;;;;2.67;0.60;;;29.00;52.00;;;;;;4981642;28;20702;-69
2023/12/01 02:50:47;;;;;;;3.60;0.70;;;29.30;53.00;;;;;;4980400;28;20206;-69
2023/12/01 02:53:17;;;;;;;2.70;0.97;;;29.30;52.30;;;;;;4979899;28;20186;-71
2023/12/01 02:55:45;;;;;;;1.73;1.20;;;29.30;52.20;;;;;;4988031;28;20190;-72
2023/12/01 02:58:14;;;;;;;3.70;0.93;;;28.80;52.20;;;;;;4985003;28;20577;-73
2023/12/01 03:00:44;;;;;;;1.20;0.80;;;29.40;52.10;;;;;;4974039;28;20190;-74
2023/12/01 03:03:11;;;;;;;4.77;1.03;;;29.80;51.60;;;;;;4977718;28;20174;-74
2023/12/01 03:05:39;;;;;;;6.25;1.10;;;29.60;51.20;;;;;;4977369;28;20190;-76
2023/12/01 03:08:06;;;;;;;1.65;0.70;;;29.80;50.90;;;;;;4981123;28;20190;-74
2023/12/01 03:10:35;;;;;;;2.77;0.90;;;29.30;51.00;;;;;;4989552;28;20224;-73
2023/12/01 03:13:03;;;;;;;2.97;0.70;;;29.40;51.20;;;;;;4977697;28;20656;-73
2023/12/01 03:15:30;;;;;;;2.10;0.87;;;29.80;49.80;;;;;;4987154;28;20553;-75
2023/12/01 03:17:58;;;;;;;1.90;0.83;;;29.40;50.70;;;;;;4986461;28;20194;-74
2023/12/01 03:20:27;;;;;;;2.47;0.90;;;29.50;50.40;;;;;;4979803;28;20190;-72
2023/12/01 03:22:55;;;;;;;4.17;0.90;;;29.70;50.20;;;;;;4983931;28;20190;-74
2023/12/01 03:25:22;;;;;;;4.20;0.97;;;29.90;49.50;;;;;;4981409;28;20195;-72
2023/12/01 03:27:53;;;;;;;4.53;0.90;;;29.90;50.10;;;;;;4987011;28;20731;-74
2023/12/01 03:30:21;;;;;;;3.93;1.23;;;30.00;49.40;;;;;;4991424;28;20245;-74
2023/12/01 03:32:53;;;;;;;2.13;0.80;;;29.50;50.40;;;;;;4977023;28;20202;-74
2023/12/01 03:35:24;;;;;;;2.70;1.00;;;29.90;49.90;;;;;;4979841;28;20178;-74
2023/12/01 03:37:56;;;;;;;3.05;0.60;;;29.90;49.90;;;;;;4994095;28;20184;-73
2023/12/01 03:40:25;;;;;;;3.58;0.88;;;29.40;50.90;;;;;;4979525;28;20633;-72
2023/12/01 03:42:52;;;;;;;4.00;1.00;;;28.80;52.00;;;;;;4984195;28;20186;-72
2023/12/01 03:45:19;;;;;;;6.37;1.00;;;28.40;54.00;;;;;;4990757;28;20182;-68
2023/12/01 03:47:49;;;;;;;2.43;1.10;;;28.40;55.20;;;;;;4993897;28;20185;-71
2023/12/01 03:50:18;;;;;;;3.23;0.90;;;28.40;54.60;;;;;;4985365;28;20214;-69
2023/12/01 03:52:47;;;;;;;2.83;0.90;;;28.40;54.40;;;;;;4982838;28;20262;-72
2023/12/01 03:55:15;;;;;;;3.00;0.90;;;27.80;55.90;;;;;;4988419;28;20190;-69
2023/12/01 03:57:44;;;;;;;4.00;0.90;;;27.90;56.60;;;;;;4979846;28;20646;-72
2023/12/01 04:00:13;;;;;;;4.10;0.97;;;27.90;56.80;;;;;;4991098;28;20208;-70
2023/12/01 04:02:42;;;;;;;3.03;0.90;;;27.80;57.10;;;;;;4990750;28;20182;-72
2023/12/01 04:05:17;;;;;;;6.13;1.13;;;27.90;57.10;;;;;;4991161;28;20190;-71
2023/12/01 04:07:45;;;;;;;4.33;0.90;;;28.90;54.60;;;;;;4980772;28;20265;-74
2023/12/01 04:10:13;;;;;;;3.17;0.93;;;29.60;52.80;;;;;;4980048;28;20676;-74
2023/12/01 04:12:45;;;;;;;2.17;0.90;;;29.60;52.50;;;;;;4987158;28;20205;-72
2023/12/01 04:15:13;;;;;;;2.40;0.70;;;30.30;50.20;;;;;;4985692;28;20233;-73
2023/12/01 04:17:44;;;;;;;3.35;0.95;;;30.30;50.30;;;;;;4985129;28;20240;-72
2023/12/01 04:20:21;;;;;;;3.50;0.80;;;30.30;49.90;;;;;;4989146;28;20530;-70
2023/12/01 04:22:56;;;;;;;3.20;0.77;;;30.70;48.70;;;;;;4994415;28;20186;-80
2023/12/01 04:25:23;;;;;;;3.20;0.80;;;30.50;47.90;;;;;;4991880;28;20667;-70
2023/12/01 04:27:52;;;;;;;4.20;0.80;;;30.50;48.60;;;;;;4993933;28;20280;-72
2023/12/01 04:30:20;;;;;;;2.13;0.68;;;30.00;50.60;;;;;;4994195;28;20210;-70
2023/12/01 04:32:54;;;;;;;2.65;1.08;;;30.40;50.00;;;;;;4972201;28;20285;-73
2023/12/01 04:35:25;;;;;;;3.80;0.80;;;30.50;49.20;;;;;;4984448;28;20608;-72
2023/12/01 04:37:53;;;;;;;2.47;0.60;;;30.20;49.40;;;;;;4987642;28;20233;-73
2023/12/01 04:40:21;;;;;;;2.17;0.60;;;30.30;49.80;;;;;;4982545;28;20197;-71
2023/12/01 04:42:50;;;;;;;5.28;0.77;;;30.30;49.40;;;;;;4992227;28;20190;-72
2023/12/01 04:45:22;;;;;;;4.72;0.93;;;30.50;49.10;;;;;;4982696;28;20185;-73
2023/12/01 04:47:50;;;;;;;4.93;0.80;;;31.10;47.20;;;;;;4978861;28;20178;-74
2023/12/01 04:50:21;;;;;;;1.50;0.80;;;31.30;46.70;;;;;;4981986;28;20214;-69
2023/12/01 04:52:50;;;;;;;2.05;0.70;;;32.20;45.50;;;;;;4986148;28;20269;-71
2023/12/01 04:55:19;;;;;;;1.10;0.50;;;32.40;45.20;;;;;;4981920;28;20277;-72
2023/12/01 04:57:48;;;;;;;3.45;0.73;;;32.00;45.10;;;;;;4980799;28;20669;-69
2023/12/01 05:00:21;;;;;;;3.35;0.80;;;31.40;46.80;;;;;;4973792;28;20241;-74
2023/12/01 05:02:53;;;;;;;2.30;0.88;;;31.60;45.80;;;;;;4979449;28;20232;-74
2023/12/01 05:05:22;;;;;;;2.63;1.00;;;30.80;48.30;;;;;;4986336;28;20231;-72
2023/12/01 05:07:51;;;;;;;4.60;0.95;;;30.40;49.70;;;;;;4992332;28;20525;-69
2023/12/01 05:10:23;;;;;;;2.80;0.85;;;30.70;49.00;;;;;;4987599;28;20218;-74
2023/12/01 05:12:54;;;;;;;5.18;0.90;;;30.20;50.40;;;;;;4989808;28;20186;-74
2023/12/01 05:15:24;;;;;;;3.50;0.88;;;30.30;49.80;;;;;;4982677;28;20191;-73
2023/12/01 05:18:11;;;;;;;6.15;1.15;;;30.40;48.30;;;;;;4989905;28;20240;-69
2023/12/01 05:20:39;;;;;;;3.47;0.70;;;29.90;50.40;;;;;;4989266;28;20578;-70
2023/12/01 05:23:09;;;;;;;5.80;1.27;;;30.10;49.90;;;;;;4992055;28;20189;-69
2023/12/01 05:25:38;;;;;;;2.40;0.73;;;30.30;50.00;;;;;;4978863;28;20186;-69
2023/12/01 05:28:07;;;;;;;1.67;1.13;;;30.50;48.30;;;;;;4978764;28;20272;-68
2023/12/01 05:30:38;;;;;;;9.30;1.08;;;30.40;48.10;;;;;;4985484;28;20346;-71
2023/12/01 05:33:06;;;;;;;5.90;1.05;;;30.00;48.90;;;;;;4979735;28;20288;-72
2023/12/01 05:35:38;;;;;;;5.07;0.97;;;29.00;51.80;;;;;;4989267;28;20297;-75
2023/12/01 05:38:05;;;;;;;4.00;1.10;;;29.30;51.60;;;;;;4981877;28;20645;-70
2023/12/01 05:40:35;;;;;;;3.47;1.00;;;29.90;50.10;;;;;;4990708;28;20185;-72
2023/12/01 05:43:04;;;;;;;3.83;1.25;;;30.50;48.80;;;;;;4983095;28;20209;-69
2023/12/01 05:45:38;;;;;;;5.45;0.98;;;30.80;48.80;;;;;;4988590;28;20201;-71
2023/12/01 05:48:08;;;;;;;4.93;1.40;;;30.90;48.40;;;;;;4977587;28;20192;-73
2023/12/01 05:50:36;;;;;;;6.28;1.30;;;30.90;49.00;;;;;;4982196;28;20214;-71
2023/12/01 05:53:06;;;;;;;6.38;1.27;;;30.10;50.60;;;;;;4991152;28;20182;-77
2023/12/01 05:55:35;;;;;;;4.40;1.48;;;29.80;52.20;;;;;;4983198;28;20181;-73
2023/12/01 05:58:05;;;;;;;4.82;1.20;;;29.40;53.10;;;;;;4980695;28;20320;-73
2023/12/01 06:00:33;;;;;;;4.72;1.10;;;30.00;50.90;;;;;;4988349;28;20658;-71
2023/12/01 06:03:06;;;;;;;3.20;1.00;;;29.60;51.00;;;;;;4981539;28;20547;-72
2023/12/01 06:05:34;;;;;;;4.00;1.13;;;28.70;53.20;;;;;;4987493;28;20182;-74
2023/12/01 06:08:03;;;;;;;4.27;1.40;;;28.00;54.60;;;;;;4974578;28;20197;-72
2023/12/01 06:10:32;;;;;;;9.97;1.43;;;28.10;55.40;;;;;;4969596;28;20586;-73
2023/12/01 06:13:00;;;;;;;3.83;0.73;;;27.80;56.30;;;;;;4990719;28;20182;-80
2023/12/01 06:15:30;;;;;;;3.87;0.80;;;27.30;57.60;;;;;;4985176;28;20185;-72
2023/12/01 06:17:59;;;;;;;3.77;1.10;;;27.10;57.30;;;;;;4982453;28;20179;-75
2023/12/01 06:20:27;;;;;;;5.53;1.17;;;26.70;57.70;;;;;;4982981;28;20185;-72
2023/12/01 06:22:59;;;;;;;4.87;1.00;;;26.30;58.80;;;;;;4990690;28;20178;-71
2023/12/01 06:25:28;;;;;;;2.77;0.70;;;26.10;59.30;;;;;;4986143;28;20191;-72
2023/12/01 06:27:59;;;;;;;5.10;1.13;;;26.00;59.40;;;;;;4980129;28;20225;-69
2023/12/01 06:30:29;;;;;;;8.00;1.10;;;25.70;61.60;;;;;;4981938;28;20210;-71
2023/12/01 06:32:56;;;;;;;5.13;1.00;;;25.50;63.00;;;;;;4988015;28;20272;-71
2023/12/01 06:35:23;;;;;;;6.87;1.70;;;25.30;63.70;;;;;;4988953;28;20181;-70
2023/12/01 06:37:51;;;;;;;5.80;1.17;;;25.20;64.80;;;;;;4988254;28;20636;-71
2023/12/01 06:40:20;;;;;;;5.60;1.43;;;25.30;64.90;;;;;;4980762;28;20197;-72
2023/12/01 06:42:49;;;;;;;6.10;1.53;;;25.00;65.20;;;;;;4986369;28;20463;-72
2023/12/01 06:45:19;;;;;;;6.57;1.67;;;24.90;65.50;;;;;;4977569;28;20288;-70
2023/12/01 06:47:49;;;;;;;3.77;1.30;;;24.90;65.50;;;;;;4988045;28;20196;-70
2023/12/01 06:50:18;;;;;;;6.50;1.30;;;25.20;64.80;;;;;;4988110;28;20312;-77
2023/12/01 06:52:48;;;;;;;8.87;1.60;;;25.30;64.80;;;;;;4984260;28;20222;-71
2023/12/01 06:55:16;;;;;;;5.27;1.60;;;25.20;65.10;;;;;;4984072;28;20217;-73
2023/12/01 06:57:48;;;;;;;6.27;1.30;;;25.20;65.60;;;;;;4988508;28;20216;-72
2023/12/01 07:00:37;;;;;;;5.60;1.40;;;25.30;65.70;;;;;;4993081;28;20181;-73
2023/12/01 07:03:09;;;;;;;7.27;1.27;;;25.40;65.20;;;;;;4994211;28;20186;-73
2023/12/01 07:05:37;;;;;;;6.00;1.37;;;25.20;66.00;;;;;;4995811;28;20659;-72
2023/12/01 07:08:11;;;;;;;8.13;1.77;;;25.40;66.10;;;;;;4991094;28;20674;-70
2023/12/01 07:10:39;;;;;;;5.07;1.30;;;25.90;65.60;;;;;;4982816;28;20280;-72
2023/12/01 07:13:06;;;;;;;7.83;1.50;;;25.80;64.50;;;;;;4991498;28;20232;-75
2023/12/01 07:15:33;;;;;;;9.70;1.97;;;25.30;66.10;;;;;;4996137;28;20186;-73
2023/12/01 07:18:01;;;;;;;7.83;1.80;;;25.50;65.30;;;;;;4994035;28;20198;-73
2023/12/01 07:20:28;;;;;;;5.30;1.77;;;25.30;66.00;;;;;;4994079;28;20641;-76
2023/12/01 07:22:55;;;;;;;8.17;1.37;;;25.30;66.30;;;;;;4984555;28;20186;-71
2023/12/01 07:25:23;;;;;;;7.40;1.60;;;25.30;66.40;;;;;;4996031;28;20590;-74
2023/12/01 07:27:52;;;;;;;8.27;2.27;;;25.30;66.80;;;;;;4986713;28;20692;-67
2023/12/01 07:30:19;;;;;;;10.07;2.00;;;25.00;68.00;;;;;;4990480;28;20241;-68
2023/12/01 07:32:48;;;;;;;6.33;1.37;;;25.00;67.50;;;;;;4994268;28;20182;-75
2023/12/01 07:35:16;;;;;;;9.30;1.60;;;24.80;68.10;;;;;;4992311;28;20197;-69
2023/12/01 07:37:45;;;;;;;8.47;1.77;;;24.50;68.50;;;;;;4993725;28;20524;-71
2023/12/01 07:40:19;;;;;;;4.93;1.37;;;24.40;69.30;;;;;;4994231;28;20232;-74
2023/12/01 07:42:54;;;;;;;8.40;1.67;;;24.30;70.20;;;;;;4993100;28;20263;-73
2023/12/01 07:45:22;;;;;;;7.57;1.57;;;24.30;70.30;;;;;;4993970;28;20185;-73
2023/12/01 07:47:55;;;;;;;10.60;2.10;;;24.20;71.20;;;;;;4993873;28;20186;-67
2023/12/01 07:50:25;;;;;;;6.17;1.70;;;23.90;71.20;;;;;;4982820;28;20295;-67
2023/12/01 07:52:52;;;;;;;9.73;1.77;;;23.80;71.90;;;;;;4994195;28;20186;-75
2023/12/01 07:55:21;;;;;;;8.20;1.83;;;23.80;72.60;;;;;;4994312;28;20194;-72
2023/12/01 07:57:48;;;;;;;12.03;2.30;;;23.80;72.80;;;;;;4994208;28;20189;-71
2023/12/01 08:00:16;;;;;;;8.27;1.90;;;23.80;72.60;;;;;;4991226;28;20232;-73
2023/12/01 08:02:51;;;;;;;7.40;2.10;;;23.80;72.90;;;;;;4993331;28;20189;-74
2023/12/01 08:05:19;;;;;;;10.60;2.07;;;23.70;73.00;;;;;;4991861;28;20625;-70
2023/12/01 08:07:54;;;;;;;7.97;2.87;;;23.60;73.50;;;;;;4994580;28;20212;-72
2023/12/01 08:10:23;;;;;;;9.37;2.03;;;23.60;74.10;;;;;;4992331;28;20327;-72
2023/12/01 08:12:56;;;;;;;8.50;1.97;;;23.50;73.80;;;;;;4994623;28;20190;-71
2023/12/01 08:15:24;;;;;;;10.57;1.93;;;23.40;74.30;;;;;;4993291;28;20273;-76
2023/12/01 08:17:51;;;;;;;5.93;2.20;;;23.30;74.30;;;;;;4993620;28;20186;-73
2023/12/01 08:20:18;;;;;;;13.30;2.23;;;23.30;74.90;;;;;;4994036;28;20189;-72
2023/12/01 08:22:49;;;;;;;12.17;2.20;;;23.20;75.00;;;;;;4982130;28;20187;-72
2023/12/01 08:25:21;;;;;;;10.70;2.50;;;23.20;75.00;;;;;;4992584;28;20186;-70
2023/12/01 08:27:48;;;;;;;11.30;2.03;;;23.20;75.40;;;;;;4990782;28;20237;-72
2023/12/01 08:30:16;;;;;;;4.83;1.90;;;23.10;75.40;;;;;;4992949;28;20297;-75
2023/12/01 08:32:43;;;;;;;10.13;2.20;;;22.90;75.80;;;;;;4994156;28;20240;-77
2023/12/01 08:35:11;;;;;;;9.17;2.33;;;22.90;76.10;;;;;;4993958;28;20280;-72
2023/12/01 08:37:38;;;;;;;11.30;2.67;;;22.80;76.40;;;;;;4994012;28;21026;-72
2023/12/01 08:40:11;;;;;;;14.87;2.87;;;22.80;76.80;;;;;;4994386;28;20190;-71
2023/12/01 08:42:41;;;;;;;9.07;2.63;;;22.80;77.20;;;;;;4993814;28;20660;-74
2023/12/01 08:45:09;;;;;;;17.27;2.60;;;22.80;77.60;;;;;;4992271;28;20577;-72
2023/12/01 08:47:37;;;;;;;14.77;2.70;;;22.70;78.20;;;;;;4993906;28;20182;-73
2023/12/01 08:50:05;;;;;;;9.13;2.40;;;22.60;78.60;;;;;;4993519;28;20209;-71
2023/12/01 08:52:32;;;;;;;11.90;2.50;;;22.50;78.80;;;;;;4993419;28;20193;-72
2023/12/01 08:55:00;;;;;;;14.60;2.27;;;22.40;78.90;;;;;;4993780;28;20261;-72
2023/12/01 08:57:27;;;;;;;10.90;2.73;;;22.40;79.30;;;;;;4993324;28;20228;-70
2023/12/01 08:59:54;;;;;;;10.43;2.60;;;22.40;79.30;;;;;;4991625;28;20191;-71
2023/12/01 09:02:22;;;;;;;10.20;2.17;;;22.30;79.50;;;;;;4990210;28;20175;-73
2023/12/01 09:04:49;;;;;;;11.40;2.53;;;22.30;79.50;;;;;;4992998;28;20209;-72
2023/12/01 09:07:16;;;;;;;12.33;2.47;;;22.30;79.90;;;;;;4993432;28;20182;-70
2023/12/01 09:09:43;;;;;;;7.73;1.97;;;22.30;80.10;;;;;;4993828;28;20684;-73
2023/12/01 09:12:11;;;;;;;12.93;2.40;;;22.30;80.30;;;;;;4993525;28;20239;-73
2023/12/01 09:14:40;;;;;;;11.57;3.07;;;22.20;80.90;;;;;;4989901;28;20688;-71
2023/12/01 09:17:08;;;;;;;14.13;3.40;;;22.20;81.40;;;;;;4990252;28;20260;-74
2023/12/01 09:19:35;;;;;;;15.43;2.70;;;22.20;81.90;;;;;;4988597;28;20186;-72
2023/12/01 09:22:02;;;;;;;19.17;3.23;;;22.20;82.40;;;;;;4990190;28;20182;-71
2023/12/01 09:24:30;;;;;;;18.90;3.00;;;22.10;82.40;;;;;;4992402;28;20182;-72
2023/12/01 09:26:57;;;;;;;13.20;3.00;;;22.20;82.50;;;;;;4972482;28;20237;-72
2023/12/01 09:29:24;;;;;;;17.70;3.30;;;22.10;82.50;;;;;;4991265;28;20201;-70
2023/12/01 09:31:52;;;;;;;13.57;3.03;;;22.10;82.50;;;;;;4986631;28;20273;-68
2023/12/01 09:34:20;;;;;;;10.93;2.70;;;22.00;83.10;;;;;;4989410;28;20586;-71
2023/12/01 09:36:47;;;;;;;15.90;3.10;;;22.00;83.10;;;;;;4991653;28;20184;-71
2023/12/01 09:39:15;;;;;;;20.07;4.00;;;22.00;83.50;;;;;;4990997;28;20178;-68
2023/12/01 09:41:43;;;;;;;16.90;3.07;;;22.00;83.50;;;;;;4993134;28;20178;-73
2023/12/01 09:44:10;;;;;;;18.33;3.50;;;22.00;83.40;;;;;;4991781;28;20217;-68
2023/12/01 09:46:39;;;;;;;15.63;3.27;;;22.00;83.60;;;;;;4993197;28;20269;-71
2023/12/01 09:49:07;;;;;;;23.07;3.60;;;21.90;83.30;;;;;;4992297;28;20208;-67
2023/12/01 09:51:36;;;;;;;11.17;3.00;;;21.90;83.00;;;;;;4981051;28;20214;-68
2023/12/01 09:54:04;;;;;;;15.03;3.13;;;22.00;83.10;;;;;;4992814;28;20184;-71
2023/12/01 09:56:32;;;;;;;15.07;3.20;;;21.90;82.80;;;;;;4992429;28;20190;-69
2023/12/01 09:59:00;;;;;;;14.43;2.83;;;21.80;82.80;;;;;;4984282;28;20257;-68
2023/12/01 10:01:30;;;;;;;16.67;3.27;;;21.80;82.70;;;;;;4989466;28;20501;-68
2023/12/01 10:03:57;;;;;;;11.67;2.40;;;21.80;82.90;;;;;;4986815;28;20706;-72
2023/12/01 10:06:24;;;;;;;13.70;2.70;;;21.80;83.10;;;;;;4991703;28;20266;-68
2023/12/01 10:08:52;;;;;;;11.33;3.03;;;21.80;82.70;;;;;;4989479;28;20711;-73
2023/12/01 10:11:21;;;;;;;19.53;3.57;;;21.80;82.80;;;;;;4987696;28;20218;-68
2023/12/01 10:13:49;;;;;;;11.63;2.67;;;21.80;82.90;;;;;;4991500;28;20236;-73
2023/12/01 10:16:23;;;;;;;17.60;3.53;;;21.80;83.10;;;;;;4988638;28;20197;-70
2023/12/01 10:19:04;;;;;;;13.13;3.13;;;21.80;83.00;;;;;;4986084;28;20174;-73
2023/12/01 10:21:51;;;;;;;13.10;3.20;;;21.80;83.00;;;;;;4991330;28;20213;-69
2023/12/01 10:24:22;;;;;;;12.23;2.77;;;21.80;83.00;;;;;;4985448;28;20182;-71
2023/12/01 10:26:53;;;;;;;14.33;2.97;;;21.90;83.20;;;;;;4982496;28;20253;-71
2023/12/01 10:29:30;;;;;;;16.37;2.60;;;21.90;82.80;;;;;;4987595;28;20192;-74
2023/12/01 10:32:07;;;;;;;14.37;3.50;;;21.90;82.80;;;;;;4988400;28;20288;-72
2023/12/01 10:34:34;;;;;;;14.07;2.87;;;21.90;82.90;;;;;;4991388;28;20668;-71
2023/12/01 10:37:03;;;;;;;11.33;2.43;;;21.80;82.80;;;;;;4996008;28;20236;-69
2023/12/01 10:39:31;;;;;;;17.07;3.60;;;21.80;82.70;;;;;;4995989;28;20224;-71
2023/12/01 10:41:59;;;;;;;15.17;3.10;;;21.80;82.70;;;;;;4995557;28;20190;-74
2023/12/01 10:44:27;;;;;;;9.97;2.20;;;21.80;82.70;;;;;;4994517;28;20182;-68
2023/12/01 10:46:56;;;;;;;12.37;2.80;;;21.70;82.90;;;;;;4996024;28;20182;-69
2023/12/01 10:49:24;;;;;;;10.33;3.03;;;21.70;83.20;;;;;;4996279;28;20236;-72
2023/12/01 10:51:55;;;;;;;16.77;3.97;;;21.70;83.10;;;;;;4983160;28;20209;-68
2023/12/01 10:54:26;;;;;;;14.23;2.80;;;21.70;83.00;;;;;;4996303;28;20184;-72
2023/12/01 10:57:02;;;;;;;14.93;3.27;;;21.70;83.20;;;;;;4995529;28;20185;-72
2023/12/01 10:59:32;;;;;;;13.27;2.90;;;21.80;83.40;;;;;;4994416;28;20194;-70
2023/12/01 11:02:00;;;;;;;16.40;3.17;;;21.80;83.10;;;;;;4993195;28;20264;-72
2023/12/01 11:04:32;;;;;;;11.67;2.77;;;21.80;82.90;;;;;;4994729;28;20578;-71
2023/12/01 11:07:15;;;;;;;13.47;2.67;;;21.70;83.00;;;;;;4991122;28;20183;-71
2023/12/01 11:10:00;;;;;;;10.63;2.50;;;21.80;83.10;;;;;;4990321;28;20213;-67
2023/12/01 11:12:56;;;;;;;21.07;2.97;;;21.70;83.10;;;;;;4994587;28;20732;-67
2023/12/01 11:15:29;;;;;;;14.67;3.17;;;21.70;83.00;;;;;;4984245;28;20170;-69
2023/12/01 11:17:56;;;;;;;17.87;3.30;;;21.80;83.00;;;;;;4995320;28;20237;-67
2023/12/01 11:20:49;;;;;;;15.93;3.50;;;21.70;82.90;;;;;;4996104;28;20268;-66
2023/12/01 11:23:24;;;;;;;11.80;2.63;;;21.70;83.00;;;;;;4994828;28;20190;-71
2023/12/01 11:26:06;;;;;;;18.83;3.07;;;21.70;82.90;;;;;;4995357;28;20189;-71
2023/12/01 11:28:43;;;;;;;13.70;2.63;;;21.70;82.80;;;;;;4985574;28;20229;-71
2023/12/01 11:31:23;;;;;;;15.57;2.80;;;21.70;82.90;;;;;;4992713;28;20213;-69
2023/12/01 11:33:51;;;;;;;16.60;2.97;;;21.70;82.80;;;;;;4993971;28;20186;-71
2023/12/01 11:36:32;;;;;;;10.23;2.63;;;21.70;82.80;;;;;;4995636;28;20189;-72
2023/12/01 11:39:11;;;;;;;19.57;3.33;;;21.70;82.80;;;;;;4995834;28;20177;-69
2023/12/01 11:41:49;;;;;;;13.17;2.73;;;21.70;82.80;;;;;;4994275;28;20182;-71
2023/12/01 11:44:26;;;;;;;16.40;3.10;;;21.70;82.60;;;;;;4992677;28;20656;-69
2023/12/01 11:46:58;;;;;;;10.73;3.20;;;21.80;82.50;;;;;;4995046;28;20197;-70
2023/12/01 11:49:35;;;;;;;15.10;2.80;;;21.70;82.60;;;;;;4995161;28;20198;-73
2023/12/01 11:52:04;;;;;;;12.20;2.73;;;21.60;82.20;;;;;;4994756;28;20566;-72
2023/12/01 11:54:36;;;;;;;15.57;2.47;;;21.50;82.40;;;;;;4993577;28;20239;-68
2023/12/01 11:57:09;;;;;;;11.67;2.53;;;21.50;82.50;;;;;;4994281;28;20190;-68
2023/12/01 11:59:36;;;;;;;14.03;2.83;;;21.60;82.40;;;;;;4994639;28;20193;-67
2023/12/01 12:02:04;;;;;;;9.40;2.53;;;21.60;82.20;;;;;;4991500;28;20182;-68
2023/12/01 12:04:33;;;;;;;14.93;2.87;;;21.60;82.10;;;;;;4994566;28;20695;-67
2023/12/01 12:07:02;;;;;;;13.63;2.70;;;21.60;81.70;;;;;;4991212;28;20190;-68
2023/12/01 12:09:35;;;;;;;14.60;2.70;;;21.60;82.00;;;;;;4992978;28;20177;-68
2023/12/01 12:12:05;;;;;;;12.23;2.67;;;21.50;82.00;;;;;;4983041;28;20174;-67
2023/12/01 12:14:35;;;;;;;10.47;2.50;;;21.60;82.20;;;;;;4993262;28;20186;-68
2023/12/01 12:17:03;;;;;;;17.43;2.77;;;21.60;81.80;;;;;;4995075;28;20211;-67
2023/12/01 12:19:44;;;;;;;13.93;2.80;;;21.50;81.40;;;;;;4993184;28;20201;-69
2023/12/01 12:22:13;;;;;;;10.63;2.20;;;21.50;81.40;;;;;;4995447;28;20181;-67
2023/12/01 12:24:47;;;;;;;14.63;2.60;;;21.50;81.40;;;;;;4993573;28;20190;-69
2023/12/01 12:27:14;;;;;;;7.37;2.13;;;21.50;81.30;;;;;;4988850;28;20226;-69
2023/12/01 12:29:41;;;;;;;10.50;2.90;;;21.50;81.00;;;;;;4993871;28;20186;-71
2023/12/01 12:32:09;;;;;;;12.80;2.70;;;21.40;81.10;;;;;;4990881;28;20268;-69
2023/12/01 12:34:38;;;;;;;10.57;2.90;;;21.30;81.10;;;;;;4994640;28;20217;-69
2023/12/01 12:37:06;;;;;;;6.47;2.10;;;21.40;81.00;;;;;;4975601;28;20553;-68
2023/12/01 12:39:34;;;;;;;12.37;2.80;;;21.30;81.10;;;;;;4994751;28;20174;-69
2023/12/01 12:42:01;;;;;;;11.13;2.23;;;21.40;81.10;;;;;;4993178;28;20802;-72
2023/12/01 12:44:32;;;;;;;13.53;2.53;;;21.40;81.00;;;;;;4992943;28;20212;-73
2023/12/01 12:47:01;;;;;;;10.60;2.40;;;21.40;81.00;;;;;;4993687;28;20196;-70
2023/12/01 12:49:32;;;;;;;11.03;2.60;;;21.40;80.90;;;;;;4992564;28;20206;-71
2023/12/01 12:52:01;;;;;;;10.80;2.93;;;21.30;81.10;;;;;;4994582;28;20530;-73
2023/12/01 12:54:28;;;;;;;8.50;2.37;;;21.30;81.10;;;;;;4984152;28;20175;-73